sensor_id;sensor_type;location;lat;lon;timestamp;P1;durP1;ratioP1;P2;durP2;ratioP2
74371;SDS011;62885;51.374;6.170;2023-11-21T00:00:13;11.73;;;6.10;;
74371;SDS011;62885;51.374;6.170;2023-11-21T00:02:39;14.10;;;6.65;;
74371;SDS011;62885;51.374;6.170;2023-11-21T00:05:08;12.57;;;5.95;;
74371;SDS011;62885;51.374;6.170;2023-11-21T00:07:39;14.88;;;7.22;;
74371;SDS011;62885;51.374;6.170;2023-11-21T00:10:06;15.65;;;7.80;;
74371;SDS011;62885;51.374;6.170;2023-11-21T00:12:36;11.93;;;6.78;;
74371;SDS011;62885;51.374;6.170;2023-11-21T00:15:02;12.80;;;6.55;;
74371;SDS011;62885;51.374;6.170;2023-11-21T00:17:30;18.35;;;7.03;;
74371;SDS011;62885;51.374;6.170;2023-11-21T00:19:55;13.48;;;6.70;;
74371;SDS011;62885;51.374;6.170;2023-11-21T00:22:21;12.13;;;6.57;;
74371;SDS011;62885;51.374;6.170;2023-11-21T00:24:46;15.38;;;7.40;;
74371;SDS011;62885;51.374;6.170;2023-11-21T00:27:12;13.27;;;7.10;;
74371;SDS011;62885;51.374;6.170;2023-11-21T00:29:38;17.65;;;7.78;;
74371;SDS011;62885;51.374;6.170;2023-11-21T00:32:04;12.13;;;6.55;;
74371;SDS011;62885;51.374;6.170;2023-11-21T00:34:30;14.18;;;6.93;;
74371;SDS011;62885;51.374;6.170;2023-11-21T00:36:56;14.55;;;7.78;;
74371;SDS011;62885;51.374;6.170;2023-11-21T00:39:21;16.05;;;7.97;;
74371;SDS011;62885;51.374;6.170;2023-11-21T00:41:47;13.00;;;6.55;;
74371;SDS011;62885;51.374;6.170;2023-11-21T00:44:14;16.45;;;8.90;;
74371;SDS011;62885;51.374;6.170;2023-11-21T00:46:41;15.35;;;7.72;;
74371;SDS011;62885;51.374;6.170;2023-11-21T00:49:06;19.48;;;8.32;;
74371;SDS011;62885;51.374;6.170;2023-11-21T00:51:32;15.70;;;7.50;;
74371;SDS011;62885;51.374;6.170;2023-11-21T00:53:58;17.52;;;7.50;;
74371;SDS011;62885;51.374;6.170;2023-11-21T00:56:23;15.95;;;8.25;;
74371;SDS011;62885;51.374;6.170;2023-11-21T00:58:49;13.07;;;6.45;;
74371;SDS011;62885;51.374;6.170;2023-11-21T01:01:17;15.13;;;8.10;;
74371;SDS011;62885;51.374;6.170;2023-11-21T01:03:48;15.07;;;8.63;;
74371;SDS011;62885;51.374;6.170;2023-11-21T01:06:14;14.10;;;7.68;;
74371;SDS011;62885;51.374;6.170;2023-11-21T01:08:39;16.58;;;6.53;;
74371;SDS011;62885;51.374;6.170;2023-11-21T01:11:05;15.20;;;7.20;;
74371;SDS011;62885;51.374;6.170;2023-11-21T01:13:33;15.00;;;8.23;;
74371;SDS011;62885;51.374;6.170;2023-11-21T01:16:00;14.55;;;7.57;;
74371;SDS011;62885;51.374;6.170;2023-11-21T01:18:25;15.30;;;7.97;;
74371;SDS011;62885;51.374;6.170;2023-11-21T01:20:51;15.35;;;7.28;;
74371;SDS011;62885;51.374;6.170;2023-11-21T01:23:18;15.63;;;8.10;;
74371;SDS011;62885;51.374;6.170;2023-11-21T01:25:44;15.93;;;8.02;;
74371;SDS011;62885;51.374;6.170;2023-11-21T01:28:10;16.00;;;7.90;;
74371;SDS011;62885;51.374;6.170;2023-11-21T01:30:35;15.02;;;7.20;;
74371;SDS011;62885;51.374;6.170;2023-11-21T01:33:00;17.75;;;7.53;;
74371;SDS011;62885;51.374;6.170;2023-11-21T01:35:26;14.88;;;7.82;;
74371;SDS011;62885;51.374;6.170;2023-11-21T01:37:51;13.00;;;7.68;;
74371;SDS011;62885;51.374;6.170;2023-11-21T01:40:16;16.52;;;7.88;;
74371;SDS011;62885;51.374;6.170;2023-11-21T01:42:42;14.23;;;7.43;;
74371;SDS011;62885;51.374;6.170;2023-11-21T01:45:09;14.52;;;7.20;;
74371;SDS011;62885;51.374;6.170;2023-11-21T01:47:37;16.50;;;8.77;;
74371;SDS011;62885;51.374;6.170;2023-11-21T01:50:03;14.90;;;7.13;;
74371;SDS011;62885;51.374;6.170;2023-11-21T01:52:32;15.15;;;8.13;;
74371;SDS011;62885;51.374;6.170;2023-11-21T01:54:59;14.02;;;7.70;;
74371;SDS011;62885;51.374;6.170;2023-11-21T01:57:25;15.48;;;7.35;;
74371;SDS011;62885;51.374;6.170;2023-11-21T01:59:51;14.45;;;7.70;;
74371;SDS011;62885;51.374;6.170;2023-11-21T02:02:19;14.80;;;7.32;;
74371;SDS011;62885;51.374;6.170;2023-11-21T02:04:45;15.07;;;8.35;;
74371;SDS011;62885;51.374;6.170;2023-11-21T02:07:10;14.98;;;8.20;;
74371;SDS011;62885;51.374;6.170;2023-11-21T02:09:36;14.93;;;7.60;;
74371;SDS011;62885;51.374;6.170;2023-11-21T02:12:03;16.27;;;7.18;;
74371;SDS011;62885;51.374;6.170;2023-11-21T02:14:29;13.77;;;7.40;;
74371;SDS011;62885;51.374;6.170;2023-11-21T02:16:56;15.18;;;7.15;;
74371;SDS011;62885;51.374;6.170;2023-11-21T02:19:26;16.38;;;7.72;;
74371;SDS011;62885;51.374;6.170;2023-11-21T02:21:52;14.88;;;7.68;;
74371;SDS011;62885;51.374;6.170;2023-11-21T02:24:21;15.00;;;7.30;;
74371;SDS011;62885;51.374;6.170;2023-11-21T02:26:47;20.05;;;7.93;;
74371;SDS011;62885;51.374;6.170;2023-11-21T02:29:16;15.65;;;8.27;;
74371;SDS011;62885;51.374;6.170;2023-11-21T02:31:43;14.18;;;7.07;;
74371;SDS011;62885;51.374;6.170;2023-11-21T02:34:16;15.10;;;7.53;;
74371;SDS011;62885;51.374;6.170;2023-11-21T02:36:46;16.55;;;8.55;;
74371;SDS011;62885;51.374;6.170;2023-11-21T02:39:14;19.52;;;9.05;;
74371;SDS011;62885;51.374;6.170;2023-11-21T02:41:40;19.50;;;8.48;;
74371;SDS011;62885;51.374;6.170;2023-11-21T02:44:06;15.77;;;8.60;;
74371;SDS011;62885;51.374;6.170;2023-11-21T02:46:35;19.42;;;8.43;;
74371;SDS011;62885;51.374;6.170;2023-11-21T02:49:02;18.60;;;9.43;;
74371;SDS011;62885;51.374;6.170;2023-11-21T02:51:28;16.50;;;8.32;;
74371;SDS011;62885;51.374;6.170;2023-11-21T02:53:54;18.98;;;8.40;;
74371;SDS011;62885;51.374;6.170;2023-11-21T02:56:23;17.85;;;9.07;;
74371;SDS011;62885;51.374;6.170;2023-11-21T02:58:52;19.27;;;9.57;;
74371;SDS011;62885;51.374;6.170;2023-11-21T03:01:17;17.98;;;9.20;;
74371;SDS011;62885;51.374;6.170;2023-11-21T03:03:43;19.85;;;9.02;;
74371;SDS011;62885;51.374;6.170;2023-11-21T03:06:09;17.00;;;8.80;;
74371;SDS011;62885;51.374;6.170;2023-11-21T03:08:34;19.25;;;9.15;;
74371;SDS011;62885;51.374;6.170;2023-11-21T03:11:00;18.90;;;9.88;;
74371;SDS011;62885;51.374;6.170;2023-11-21T03:13:27;20.42;;;8.80;;
74371;SDS011;62885;51.374;6.170;2023-11-21T03:15:53;20.92;;;10.27;;
74371;SDS011;62885;51.374;6.170;2023-11-21T03:18:18;19.10;;;9.00;;
74371;SDS011;62885;51.374;6.170;2023-11-21T03:20:44;20.77;;;9.45;;
74371;SDS011;62885;51.374;6.170;2023-11-21T03:23:12;20.45;;;9.57;;
74371;SDS011;62885;51.374;6.170;2023-11-21T03:25:37;19.00;;;9.45;;
74371;SDS011;62885;51.374;6.170;2023-11-21T03:28:03;19.75;;;9.35;;
74371;SDS011;62885;51.374;6.170;2023-11-21T03:30:28;19.23;;;8.38;;
74371;SDS011;62885;51.374;6.170;2023-11-21T03:32:54;19.88;;;9.55;;
74371;SDS011;62885;51.374;6.170;2023-11-21T03:35:19;22.77;;;9.48;;
74371;SDS011;62885;51.374;6.170;2023-11-21T03:37:46;21.08;;;10.50;;
74371;SDS011;62885;51.374;6.170;2023-11-21T03:40:11;24.40;;;9.80;;
74371;SDS011;62885;51.374;6.170;2023-11-21T03:42:37;22.75;;;9.77;;
74371;SDS011;62885;51.374;6.170;2023-11-21T03:45:03;23.30;;;10.77;;
74371;SDS011;62885;51.374;6.170;2023-11-21T03:47:30;21.02;;;9.35;;
74371;SDS011;62885;51.374;6.170;2023-11-21T03:49:55;21.25;;;10.18;;
74371;SDS011;62885;51.374;6.170;2023-11-21T03:52:20;19.40;;;9.18;;
74371;SDS011;62885;51.374;6.170;2023-11-21T03:54:46;22.40;;;9.25;;
74371;SDS011;62885;51.374;6.170;2023-11-21T03:57:11;20.10;;;10.43;;
74371;SDS011;62885;51.374;6.170;2023-11-21T03:59:39;26.20;;;10.45;;
74371;SDS011;62885;51.374;6.170;2023-11-21T04:02:05;24.00;;;10.60;;
74371;SDS011;62885;51.374;6.170;2023-11-21T04:04:30;24.35;;;10.70;;
74371;SDS011;62885;51.374;6.170;2023-11-21T04:06:55;20.83;;;9.43;;
74371;SDS011;62885;51.374;6.170;2023-11-21T04:09:21;20.95;;;10.35;;
74371;SDS011;62885;51.374;6.170;2023-11-21T04:11:50;27.30;;;10.13;;
74371;SDS011;62885;51.374;6.170;2023-11-21T04:14:15;25.48;;;10.27;;
74371;SDS011;62885;51.374;6.170;2023-11-21T04:16:42;23.33;;;10.07;;
74371;SDS011;62885;51.374;6.170;2023-11-21T04:19:07;28.45;;;10.02;;
74371;SDS011;62885;51.374;6.170;2023-11-21T04:21:35;23.67;;;11.52;;
74371;SDS011;62885;51.374;6.170;2023-11-21T04:24:01;22.20;;;10.35;;
74371;SDS011;62885;51.374;6.170;2023-11-21T04:26:26;26.90;;;10.75;;
74371;SDS011;62885;51.374;6.170;2023-11-21T04:28:51;23.42;;;9.45;;
74371;SDS011;62885;51.374;6.170;2023-11-21T04:31:17;23.30;;;10.32;;
74371;SDS011;62885;51.374;6.170;2023-11-21T04:33:42;22.60;;;10.82;;
74371;SDS011;62885;51.374;6.170;2023-11-21T04:36:07;27.25;;;10.05;;
74371;SDS011;62885;51.374;6.170;2023-11-21T04:38:33;27.48;;;11.77;;
74371;SDS011;62885;51.374;6.170;2023-11-21T04:40:59;25.95;;;10.85;;
74371;SDS011;62885;51.374;6.170;2023-11-21T04:43:24;22.00;;;10.82;;
74371;SDS011;62885;51.374;6.170;2023-11-21T04:45:50;28.25;;;11.45;;
74371;SDS011;62885;51.374;6.170;2023-11-21T04:48:15;31.55;;;11.63;;
74371;SDS011;62885;51.374;6.170;2023-11-21T04:50:40;24.33;;;11.25;;
74371;SDS011;62885;51.374;6.170;2023-11-21T04:53:05;30.10;;;11.77;;
74371;SDS011;62885;51.374;6.170;2023-11-21T04:55:31;22.55;;;10.48;;
74371;SDS011;62885;51.374;6.170;2023-11-21T04:57:56;26.63;;;11.18;;
74371;SDS011;62885;51.374;6.170;2023-11-21T05:00:21;25.98;;;11.48;;
74371;SDS011;62885;51.374;6.170;2023-11-21T05:02:47;26.45;;;11.05;;
74371;SDS011;62885;51.374;6.170;2023-11-21T05:05:13;30.92;;;10.82;;
74371;SDS011;62885;51.374;6.170;2023-11-21T05:07:39;31.05;;;12.25;;
74371;SDS011;62885;51.374;6.170;2023-11-21T05:10:06;33.58;;;11.50;;
74371;SDS011;62885;51.374;6.170;2023-11-21T05:12:40;29.77;;;12.70;;
74371;SDS011;62885;51.374;6.170;2023-11-21T05:15:08;29.55;;;12.02;;
74371;SDS011;62885;51.374;6.170;2023-11-21T05:17:37;31.33;;;13.55;;
74371;SDS011;62885;51.374;6.170;2023-11-21T05:20:06;31.20;;;12.23;;
74371;SDS011;62885;51.374;6.170;2023-11-21T05:22:34;27.88;;;13.75;;
74371;SDS011;62885;51.374;6.170;2023-11-21T05:25:00;26.30;;;12.93;;
74371;SDS011;62885;51.374;6.170;2023-11-21T05:27:26;29.92;;;11.85;;
74371;SDS011;62885;51.374;6.170;2023-11-21T05:29:51;26.98;;;11.93;;
74371;SDS011;62885;51.374;6.170;2023-11-21T05:32:16;28.45;;;11.60;;
74371;SDS011;62885;51.374;6.170;2023-11-21T05:34:42;27.30;;;12.02;;
74371;SDS011;62885;51.374;6.170;2023-11-21T05:37:08;25.08;;;11.73;;
74371;SDS011;62885;51.374;6.170;2023-11-21T05:39:33;26.05;;;10.82;;
74371;SDS011;62885;51.374;6.170;2023-11-21T05:41:59;31.67;;;12.63;;
74371;SDS011;62885;51.374;6.170;2023-11-21T05:44:25;24.85;;;11.75;;
74371;SDS011;62885;51.374;6.170;2023-11-21T05:46:50;23.38;;;11.43;;
74371;SDS011;62885;51.374;6.170;2023-11-21T05:49:16;21.23;;;10.35;;
74371;SDS011;62885;51.374;6.170;2023-11-21T05:51:41;21.45;;;10.57;;
74371;SDS011;62885;51.374;6.170;2023-11-21T05:54:07;27.00;;;12.05;;
74371;SDS011;62885;51.374;6.170;2023-11-21T05:56:33;21.48;;;10.02;;
74371;SDS011;62885;51.374;6.170;2023-11-21T05:58:58;20.00;;;10.73;;
74371;SDS011;62885;51.374;6.170;2023-11-21T06:01:24;19.73;;;10.43;;
74371;SDS011;62885;51.374;6.170;2023-11-21T06:03:53;22.55;;;11.38;;
74371;SDS011;62885;51.374;6.170;2023-11-21T06:06:20;26.15;;;12.55;;
74371;SDS011;62885;51.374;6.170;2023-11-21T06:08:47;38.15;;;18.75;;
74371;SDS011;62885;51.374;6.170;2023-11-21T06:11:15;29.95;;;12.57;;
74371;SDS011;62885;51.374;6.170;2023-11-21T06:13:41;25.73;;;12.52;;
74371;SDS011;62885;51.374;6.170;2023-11-21T06:16:07;25.73;;;11.60;;
74371;SDS011;62885;51.374;6.170;2023-11-21T06:18:32;25.27;;;11.77;;
74371;SDS011;62885;51.374;6.170;2023-11-21T06:20:57;28.90;;;10.93;;
74371;SDS011;62885;51.374;6.170;2023-11-21T06:23:25;28.77;;;12.70;;
74371;SDS011;62885;51.374;6.170;2023-11-21T06:25:53;28.55;;;13.15;;
74371;SDS011;62885;51.374;6.170;2023-11-21T06:28:18;33.67;;;12.68;;
74371;SDS011;62885;51.374;6.170;2023-11-21T06:30:43;26.77;;;12.23;;
74371;SDS011;62885;51.374;6.170;2023-11-21T06:33:12;32.47;;;13.10;;
74371;SDS011;62885;51.374;6.170;2023-11-21T06:35:37;31.08;;;12.95;;
74371;SDS011;62885;51.374;6.170;2023-11-21T06:38:02;30.70;;;13.25;;
74371;SDS011;62885;51.374;6.170;2023-11-21T06:40:28;32.05;;;12.70;;
74371;SDS011;62885;51.374;6.170;2023-11-21T06:42:53;28.65;;;12.38;;
74371;SDS011;62885;51.374;6.170;2023-11-21T06:45:18;27.52;;;12.35;;
74371;SDS011;62885;51.374;6.170;2023-11-21T06:47:45;29.65;;;11.30;;
74371;SDS011;62885;51.374;6.170;2023-11-21T06:50:10;32.15;;;13.85;;
74371;SDS011;62885;51.374;6.170;2023-11-21T06:52:35;33.50;;;12.13;;
74371;SDS011;62885;51.374;6.170;2023-11-21T06:55:01;30.00;;;12.77;;
74371;SDS011;62885;51.374;6.170;2023-11-21T06:57:26;25.67;;;11.82;;
74371;SDS011;62885;51.374;6.170;2023-11-21T06:59:52;28.48;;;11.30;;
74371;SDS011;62885;51.374;6.170;2023-11-21T07:02:17;29.25;;;11.82;;
74371;SDS011;62885;51.374;6.170;2023-11-21T07:04:45;30.25;;;12.25;;
74371;SDS011;62885;51.374;6.170;2023-11-21T07:07:11;29.75;;;11.80;;
74371;SDS011;62885;51.374;6.170;2023-11-21T07:09:37;28.20;;;12.00;;
74371;SDS011;62885;51.374;6.170;2023-11-21T07:12:02;30.23;;;11.85;;
74371;SDS011;62885;51.374;6.170;2023-11-21T07:14:28;26.10;;;12.32;;
74371;SDS011;62885;51.374;6.170;2023-11-21T07:16:54;25.15;;;11.93;;
74371;SDS011;62885;51.374;6.170;2023-11-21T07:19:20;21.63;;;11.40;;
74371;SDS011;62885;51.374;6.170;2023-11-21T07:21:46;24.55;;;9.98;;
74371;SDS011;62885;51.374;6.170;2023-11-21T07:24:12;24.02;;;11.50;;
74371;SDS011;62885;51.374;6.170;2023-11-21T07:26:37;23.23;;;10.57;;
74371;SDS011;62885;51.374;6.170;2023-11-21T07:29:03;23.55;;;10.52;;
74371;SDS011;62885;51.374;6.170;2023-11-21T07:31:29;24.13;;;10.43;;
74371;SDS011;62885;51.374;6.170;2023-11-21T07:33:55;23.48;;;10.50;;
74371;SDS011;62885;51.374;6.170;2023-11-21T07:36:23;29.77;;;10.95;;
74371;SDS011;62885;51.374;6.170;2023-11-21T07:38:49;22.38;;;10.43;;
74371;SDS011;62885;51.374;6.170;2023-11-21T07:41:15;21.90;;;9.77;;
74371;SDS011;62885;51.374;6.170;2023-11-21T07:43:42;20.92;;;9.60;;
74371;SDS011;62885;51.374;6.170;2023-11-21T07:46:08;25.83;;;10.63;;
74371;SDS011;62885;51.374;6.170;2023-11-21T07:48:34;20.48;;;10.30;;
74371;SDS011;62885;51.374;6.170;2023-11-21T07:51:00;23.58;;;10.75;;
74371;SDS011;62885;51.374;6.170;2023-11-21T07:53:27;22.05;;;11.05;;
74371;SDS011;62885;51.374;6.170;2023-11-21T07:55:54;23.15;;;10.10;;
74371;SDS011;62885;51.374;6.170;2023-11-21T07:58:20;22.70;;;10.63;;
74371;SDS011;62885;51.374;6.170;2023-11-21T08:00:45;25.38;;;10.65;;
74371;SDS011;62885;51.374;6.170;2023-11-21T08:03:13;21.33;;;10.18;;
74371;SDS011;62885;51.374;6.170;2023-11-21T08:05:38;25.92;;;11.07;;
74371;SDS011;62885;51.374;6.170;2023-11-21T08:08:04;22.02;;;9.25;;
74371;SDS011;62885;51.374;6.170;2023-11-21T08:10:29;23.77;;;10.40;;
74371;SDS011;62885;51.374;6.170;2023-11-21T08:12:55;20.33;;;9.93;;
74371;SDS011;62885;51.374;6.170;2023-11-21T08:15:20;22.38;;;9.82;;
74371;SDS011;62885;51.374;6.170;2023-11-21T08:17:46;24.00;;;11.75;;
74371;SDS011;62885;51.374;6.170;2023-11-21T08:20:12;24.90;;;11.05;;
74371;SDS011;62885;51.374;6.170;2023-11-21T08:22:37;26.70;;;10.45;;
74371;SDS011;62885;51.374;6.170;2023-11-21T08:25:06;23.88;;;10.50;;
74371;SDS011;62885;51.374;6.170;2023-11-21T08:27:32;20.30;;;9.82;;
74371;SDS011;62885;51.374;6.170;2023-11-21T08:29:59;22.08;;;10.13;;
74371;SDS011;62885;51.374;6.170;2023-11-21T08:32:25;27.55;;;12.10;;
74371;SDS011;62885;51.374;6.170;2023-11-21T08:34:50;20.70;;;9.63;;
74371;SDS011;62885;51.374;6.170;2023-11-21T08:37:16;22.55;;;9.57;;
74371;SDS011;62885;51.374;6.170;2023-11-21T08:39:43;23.92;;;10.02;;
74371;SDS011;62885;51.374;6.170;2023-11-21T08:42:09;22.40;;;9.98;;
74371;SDS011;62885;51.374;6.170;2023-11-21T08:44:34;22.60;;;9.88;;
74371;SDS011;62885;51.374;6.170;2023-11-21T08:47:00;23.23;;;10.75;;
74371;SDS011;62885;51.374;6.170;2023-11-21T08:49:25;22.83;;;10.80;;
74371;SDS011;62885;51.374;6.170;2023-11-21T08:51:52;21.35;;;10.32;;
74371;SDS011;62885;51.374;6.170;2023-11-21T08:54:20;23.92;;;9.60;;
74371;SDS011;62885;51.374;6.170;2023-11-21T08:56:46;22.02;;;9.63;;
74371;SDS011;62885;51.374;6.170;2023-11-21T08:59:11;23.80;;;9.95;;
74371;SDS011;62885;51.374;6.170;2023-11-21T09:01:39;21.63;;;9.10;;
74371;SDS011;62885;51.374;6.170;2023-11-21T09:04:05;22.55;;;10.52;;
74371;SDS011;62885;51.374;6.170;2023-11-21T09:06:31;23.42;;;9.90;;
74371;SDS011;62885;51.374;6.170;2023-11-21T09:08:56;21.75;;;10.32;;
74371;SDS011;62885;51.374;6.170;2023-11-21T09:11:21;20.15;;;9.82;;
74371;SDS011;62885;51.374;6.170;2023-11-21T09:13:47;22.00;;;9.65;;
74371;SDS011;62885;51.374;6.170;2023-11-21T09:16:13;23.55;;;8.73;;
74371;SDS011;62885;51.374;6.170;2023-11-21T09:18:40;20.38;;;9.15;;
74371;SDS011;62885;51.374;6.170;2023-11-21T09:21:05;21.65;;;9.18;;
74371;SDS011;62885;51.374;6.170;2023-11-21T09:23:31;22.10;;;10.35;;
74371;SDS011;62885;51.374;6.170;2023-11-21T09:25:56;22.58;;;9.70;;
74371;SDS011;62885;51.374;6.170;2023-11-21T09:28:24;24.85;;;11.07;;
74371;SDS011;62885;51.374;6.170;2023-11-21T09:30:51;24.98;;;11.45;;
74371;SDS011;62885;51.374;6.170;2023-11-21T09:33:17;23.98;;;10.93;;
74371;SDS011;62885;51.374;6.170;2023-11-21T09:35:42;23.27;;;10.15;;
74371;SDS011;62885;51.374;6.170;2023-11-21T09:38:09;21.23;;;9.25;;
74371;SDS011;62885;51.374;6.170;2023-11-21T09:40:36;25.25;;;10.43;;
74371;SDS011;62885;51.374;6.170;2023-11-21T09:43:08;21.60;;;9.43;;
74371;SDS011;62885;51.374;6.170;2023-11-21T09:45:43;17.45;;;8.68;;
74371;SDS011;62885;51.374;6.170;2023-11-21T09:48:11;20.50;;;10.18;;
74371;SDS011;62885;51.374;6.170;2023-11-21T09:50:37;22.50;;;9.88;;
74371;SDS011;62885;51.374;6.170;2023-11-21T09:55:30;18.92;;;8.73;;
74371;SDS011;62885;51.374;6.170;2023-11-21T09:58:01;18.05;;;8.77;;
74371;SDS011;62885;51.374;6.170;2023-11-21T10:00:27;18.88;;;9.32;;
74371;SDS011;62885;51.374;6.170;2023-11-21T10:02:57;19.73;;;8.68;;
74371;SDS011;62885;51.374;6.170;2023-11-21T10:05:23;20.42;;;8.00;;
74371;SDS011;62885;51.374;6.170;2023-11-21T10:07:49;20.85;;;8.73;;
74371;SDS011;62885;51.374;6.170;2023-11-21T10:10:16;17.83;;;8.60;;
74371;SDS011;62885;51.374;6.170;2023-11-21T10:12:44;19.33;;;8.60;;
74371;SDS011;62885;51.374;6.170;2023-11-21T10:15:21;17.55;;;7.82;;
74371;SDS011;62885;51.374;6.170;2023-11-21T10:17:48;21.02;;;9.57;;
74371;SDS011;62885;51.374;6.170;2023-11-21T10:20:14;21.02;;;9.32;;
74371;SDS011;62885;51.374;6.170;2023-11-21T10:22:40;20.58;;;9.15;;
74371;SDS011;62885;51.374;6.170;2023-11-21T10:25:09;20.02;;;8.75;;
74371;SDS011;62885;51.374;6.170;2023-11-21T10:27:38;30.00;;;13.82;;
74371;SDS011;62885;51.374;6.170;2023-11-21T10:30:04;24.27;;;11.38;;
74371;SDS011;62885;51.374;6.170;2023-11-21T10:32:31;18.45;;;8.80;;
74371;SDS011;62885;51.374;6.170;2023-11-21T10:34:58;17.65;;;8.25;;
74371;SDS011;62885;51.374;6.170;2023-11-21T10:37:35;17.48;;;8.35;;
74371;SDS011;62885;51.374;6.170;2023-11-21T10:40:10;20.55;;;8.10;;
74371;SDS011;62885;51.374;6.170;2023-11-21T10:42:40;17.65;;;7.10;;
74371;SDS011;62885;51.374;6.170;2023-11-21T10:45:07;19.67;;;7.78;;
74371;SDS011;62885;51.374;6.170;2023-11-21T10:47:40;16.55;;;7.97;;
74371;SDS011;62885;51.374;6.170;2023-11-21T10:50:06;17.90;;;6.78;;
74371;SDS011;62885;51.374;6.170;2023-11-21T10:52:35;16.52;;;7.53;;
74371;SDS011;62885;51.374;6.170;2023-11-21T10:55:18;18.65;;;7.68;;
74371;SDS011;62885;51.374;6.170;2023-11-21T10:57:51;17.77;;;9.15;;
74371;SDS011;62885;51.374;6.170;2023-11-21T11:00:18;17.45;;;8.13;;
74371;SDS011;62885;51.374;6.170;2023-11-21T11:02:46;17.15;;;7.13;;
74371;SDS011;62885;51.374;6.170;2023-11-21T11:05:20;18.30;;;7.57;;
74371;SDS011;62885;51.374;6.170;2023-11-21T11:07:48;19.45;;;7.20;;
74371;SDS011;62885;51.374;6.170;2023-11-21T11:10:20;18.98;;;8.05;;
74371;SDS011;62885;51.374;6.170;2023-11-21T11:12:47;20.33;;;9.85;;
74371;SDS011;62885;51.374;6.170;2023-11-21T11:15:13;18.33;;;7.88;;
74371;SDS011;62885;51.374;6.170;2023-11-21T11:17:41;16.25;;;6.78;;
74371;SDS011;62885;51.374;6.170;2023-11-21T11:20:08;20.30;;;8.07;;
74371;SDS011;62885;51.374;6.170;2023-11-21T11:22:40;17.65;;;8.23;;
74371;SDS011;62885;51.374;6.170;2023-11-21T11:30:46;17.33;;;7.05;;
74371;SDS011;62885;51.374;6.170;2023-11-21T11:38:32;15.25;;;6.25;;
74371;SDS011;62885;51.374;6.170;2023-11-21T11:41:04;16.00;;;6.72;;
74371;SDS011;62885;51.374;6.170;2023-11-21T11:43:31;15.30;;;6.82;;
74371;SDS011;62885;51.374;6.170;2023-11-21T11:46:09;13.82;;;6.43;;
74371;SDS011;62885;51.374;6.170;2023-11-21T11:48:38;13.65;;;6.07;;
74371;SDS011;62885;51.374;6.170;2023-11-21T11:51:12;13.68;;;6.13;;
74371;SDS011;62885;51.374;6.170;2023-11-21T11:53:46;16.83;;;7.47;;
74371;SDS011;62885;51.374;6.170;2023-11-21T11:58:48;14.60;;;7.43;;
74371;SDS011;62885;51.374;6.170;2023-11-21T12:01:15;15.88;;;6.40;;
74371;SDS011;62885;51.374;6.170;2023-11-21T12:03:42;13.55;;;6.95;;
74371;SDS011;62885;51.374;6.170;2023-11-21T12:06:08;11.68;;;6.05;;
74371;SDS011;62885;51.374;6.170;2023-11-21T12:08:36;13.80;;;6.72;;
74371;SDS011;62885;51.374;6.170;2023-11-21T12:11:02;15.75;;;6.43;;
74371;SDS011;62885;51.374;6.170;2023-11-21T12:13:29;12.70;;;5.57;;
74371;SDS011;62885;51.374;6.170;2023-11-21T12:15:55;14.68;;;6.75;;
74371;SDS011;62885;51.374;6.170;2023-11-21T12:18:20;14.30;;;6.82;;
74371;SDS011;62885;51.374;6.170;2023-11-21T12:20:46;14.98;;;6.90;;
74371;SDS011;62885;51.374;6.170;2023-11-21T12:23:13;15.95;;;7.30;;
74371;SDS011;62885;51.374;6.170;2023-11-21T12:25:40;17.33;;;8.73;;
74371;SDS011;62885;51.374;6.170;2023-11-21T12:28:06;17.55;;;7.95;;
74371;SDS011;62885;51.374;6.170;2023-11-21T12:30:33;14.20;;;8.85;;
74371;SDS011;62885;51.374;6.170;2023-11-21T12:33:01;12.82;;;7.28;;
74371;SDS011;62885;51.374;6.170;2023-11-21T12:35:27;13.18;;;6.40;;
74371;SDS011;62885;51.374;6.170;2023-11-21T12:38:00;11.27;;;5.95;;
74371;SDS011;62885;51.374;6.170;2023-11-21T12:40:30;9.63;;;4.65;;
74371;SDS011;62885;51.374;6.170;2023-11-21T12:42:57;12.00;;;4.90;;
74371;SDS011;62885;51.374;6.170;2023-11-21T12:50:25;9.45;;;4.55;;
74371;SDS011;62885;51.374;6.170;2023-11-21T12:53:00;9.95;;;4.25;;
74371;SDS011;62885;51.374;6.170;2023-11-21T12:55:30;11.13;;;4.78;;
74371;SDS011;62885;51.374;6.170;2023-11-21T12:57:56;9.88;;;4.90;;
74371;SDS011;62885;51.374;6.170;2023-11-21T13:00:31;7.15;;;4.32;;
74371;SDS011;62885;51.374;6.170;2023-11-21T13:03:02;8.45;;;4.28;;
74371;SDS011;62885;51.374;6.170;2023-11-21T13:05:36;10.35;;;5.03;;
74371;SDS011;62885;51.374;6.170;2023-11-21T13:08:13;11.95;;;5.25;;
74371;SDS011;62885;51.374;6.170;2023-11-21T13:10:44;11.00;;;5.80;;
74371;SDS011;62885;51.374;6.170;2023-11-21T13:13:12;10.00;;;5.07;;
74371;SDS011;62885;51.374;6.170;2023-11-21T13:18:18;10.23;;;5.30;;
74371;SDS011;62885;51.374;6.170;2023-11-21T13:20:43;10.55;;;5.10;;
74371;SDS011;62885;51.374;6.170;2023-11-21T13:23:10;9.50;;;4.85;;
74371;SDS011;62885;51.374;6.170;2023-11-21T13:25:37;8.88;;;4.80;;
74371;SDS011;62885;51.374;6.170;2023-11-21T13:28:10;9.32;;;4.72;;
74371;SDS011;62885;51.374;6.170;2023-11-21T13:30:36;9.70;;;4.57;;
74371;SDS011;62885;51.374;6.170;2023-11-21T13:33:04;8.30;;;4.25;;
74371;SDS011;62885;51.374;6.170;2023-11-21T13:35:32;11.90;;;6.18;;
74371;SDS011;62885;51.374;6.170;2023-11-21T13:38:11;9.93;;;5.15;;
74371;SDS011;62885;51.374;6.170;2023-11-21T13:40:37;10.00;;;4.78;;
74371;SDS011;62885;51.374;6.170;2023-11-21T13:43:11;9.57;;;4.40;;
74371;SDS011;62885;51.374;6.170;2023-11-21T13:45:40;9.20;;;4.18;;
74371;SDS011;62885;51.374;6.170;2023-11-21T13:48:07;11.13;;;5.00;;
74371;SDS011;62885;51.374;6.170;2023-11-21T13:50:38;10.13;;;5.47;;
74371;SDS011;62885;51.374;6.170;2023-11-21T13:53:09;9.50;;;5.57;;
74371;SDS011;62885;51.374;6.170;2023-11-21T13:55:48;10.63;;;5.38;;
74371;SDS011;62885;51.374;6.170;2023-11-21T13:58:14;9.68;;;5.70;;
74371;SDS011;62885;51.374;6.170;2023-11-21T14:00:48;11.13;;;6.10;;
74371;SDS011;62885;51.374;6.170;2023-11-21T14:03:20;10.38;;;6.13;;
74371;SDS011;62885;51.374;6.170;2023-11-21T14:05:47;10.38;;;5.80;;
74371;SDS011;62885;51.374;6.170;2023-11-21T14:08:19;11.10;;;5.40;;
74371;SDS011;62885;51.374;6.170;2023-11-21T14:10:53;10.90;;;6.22;;
74371;SDS011;62885;51.374;6.170;2023-11-21T14:13:25;12.65;;;6.50;;
74371;SDS011;62885;51.374;6.170;2023-11-21T14:15:52;13.45;;;6.93;;
74371;SDS011;62885;51.374;6.170;2023-11-21T14:18:23;12.98;;;7.43;;
74371;SDS011;62885;51.374;6.170;2023-11-21T14:20:55;13.95;;;8.50;;
74371;SDS011;62885;51.374;6.170;2023-11-21T14:23:21;14.93;;;7.07;;
74371;SDS011;62885;51.374;6.170;2023-11-21T14:25:48;14.68;;;7.53;;
74371;SDS011;62885;51.374;6.170;2023-11-21T14:28:14;15.02;;;7.13;;
74371;SDS011;62885;51.374;6.170;2023-11-21T14:30:40;14.25;;;7.65;;
74371;SDS011;62885;51.374;6.170;2023-11-21T14:33:07;16.05;;;8.18;;
74371;SDS011;62885;51.374;6.170;2023-11-21T14:35:33;17.45;;;8.93;;
74371;SDS011;62885;51.374;6.170;2023-11-21T14:37:59;15.38;;;8.07;;
74371;SDS011;62885;51.374;6.170;2023-11-21T14:40:25;15.13;;;8.10;;
74371;SDS011;62885;51.374;6.170;2023-11-21T14:42:54;17.92;;;9.15;;
74371;SDS011;62885;51.374;6.170;2023-11-21T14:45:22;18.02;;;8.88;;
74371;SDS011;62885;51.374;6.170;2023-11-21T14:47:51;19.02;;;9.02;;
74371;SDS011;62885;51.374;6.170;2023-11-21T14:50:30;17.27;;;9.48;;
74371;SDS011;62885;51.374;6.170;2023-11-21T14:53:01;17.85;;;8.57;;